sensor_id;sensor_type;location;lat;lon;timestamp;temperature;humidity
55771;DHT22;41687;-33.234;-60.334;2023-06-22T00:00:19;9.00;99.90
55771;DHT22;41687;-33.234;-60.334;2023-06-22T00:02:47;9.00;99.90
55771;DHT22;41687;-33.234;-60.334;2023-06-22T00:05:14;8.80;99.90
55771;DHT22;41687;-33.234;-60.334;2023-06-22T00:07:42;8.90;99.90
55771;DHT22;41687;-33.234;-60.334;2023-06-22T00:10:09;9.00;99.90
55771;DHT22;41687;-33.234;-60.334;2023-06-22T00:12:38;8.90;99.90
55771;DHT22;41687;-33.234;-60.334;2023-06-22T00:15:06;8.90;99.90
55771;DHT22;41687;-33.234;-60.334;2023-06-22T00:17:33;8.90;99.90
55771;DHT22;41687;-33.234;-60.334;2023-06-22T00:20:01;8.90;99.90
55771;DHT22;41687;-33.234;-60.334;2023-06-22T00:22:33;8.90;99.90
55771;DHT22;41687;-33.234;-60.334;2023-06-22T00:25:08;8.90;99.90
55771;DHT22;41687;-33.234;-60.334;2023-06-22T00:27:36;8.80;99.90
55771;DHT22;41687;-33.234;-60.334;2023-06-22T00:30:07;8.80;99.90
55771;DHT22;41687;-33.234;-60.334;2023-06-22T00:32:34;8.70;99.90
55771;DHT22;41687;-33.234;-60.334;2023-06-22T00:35:02;8.60;99.90
55771;DHT22;41687;-33.234;-60.334;2023-06-22T00:37:30;8.60;99.90
55771;DHT22;41687;-33.234;-60.334;2023-06-22T00:39:57;8.60;99.90
55771;DHT22;41687;-33.234;-60.334;2023-06-22T00:42:25;8.60;99.90
55771;DHT22;41687;-33.234;-60.334;2023-06-22T00:44:53;8.70;99.90
55771;DHT22;41687;-33.234;-60.334;2023-06-22T00:47:21;8.60;99.90
55771;DHT22;41687;-33.234;-60.334;2023-06-22T00:49:50;8.70;99.90
55771;DHT22;41687;-33.234;-60.334;2023-06-22T00:52:22;8.70;99.90
55771;DHT22;41687;-33.234;-60.334;2023-06-22T00:54:56;8.70;99.90
55771;DHT22;41687;-33.234;-60.334;2023-06-22T00:57:27;8.70;99.90
55771;DHT22;41687;-33.234;-60.334;2023-06-22T00:59:56;8.70;99.90
55771;DHT22;41687;-33.234;-60.334;2023-06-22T01:02:23;8.60;99.90
55771;DHT22;41687;-33.234;-60.334;2023-06-22T01:04:52;8.60;99.90
55771;DHT22;41687;-33.234;-60.334;2023-06-22T01:10:37;8.60;99.90
55771;DHT22;41687;-33.234;-60.334;2023-06-22T01:16:02;8.60;99.90
55771;DHT22;41687;-33.234;-60.334;2023-06-22T01:18:32;8.60;99.90
55771;DHT22;41687;-33.234;-60.334;2023-06-22T01:21:05;8.70;99.90
55771;DHT22;41687;-33.234;-60.334;2023-06-22T01:26:35;8.70;99.90
55771;DHT22;41687;-33.234;-60.334;2023-06-22T01:29:04;8.70;99.90
55771;DHT22;41687;-33.234;-60.334;2023-06-22T01:31:35;8.70;99.90
55771;DHT22;41687;-33.234;-60.334;2023-06-22T01:34:05;8.60;99.90
55771;DHT22;41687;-33.234;-60.334;2023-06-22T01:36:34;8.60;99.90
55771;DHT22;41687;-33.234;-60.334;2023-06-22T01:39:02;8.60;99.90
55771;DHT22;41687;-33.234;-60.334;2023-06-22T01:41:36;8.60;99.90
55771;DHT22;41687;-33.234;-60.334;2023-06-22T01:44:07;8.70;99.90
55771;DHT22;41687;-33.234;-60.334;2023-06-22T01:46:36;8.60;99.90
55771;DHT22;41687;-33.234;-60.334;2023-06-22T01:49:05;8.60;99.90
55771;DHT22;41687;-33.234;-60.334;2023-06-22T01:51:33;8.60;99.90
55771;DHT22;41687;-33.234;-60.334;2023-06-22T01:54:02;8.70;99.90
55771;DHT22;41687;-33.234;-60.334;2023-06-22T01:56:30;8.60;99.90
55771;DHT22;41687;-33.234;-60.334;2023-06-22T02:02:02;8.60;99.90
55771;DHT22;41687;-33.234;-60.334;2023-06-22T02:04:58;8.60;99.90
55771;DHT22;41687;-33.234;-60.334;2023-06-22T02:07:32;8.60;99.90
55771;DHT22;41687;-33.234;-60.334;2023-06-22T02:10:04;8.70;99.90
55771;DHT22;41687;-33.234;-60.334;2023-06-22T02:12:35;8.70;99.90
55771;DHT22;41687;-33.234;-60.334;2023-06-22T02:15:03;8.70;99.90
55771;DHT22;41687;-33.234;-60.334;2023-06-22T02:17:32;8.70;99.90
55771;DHT22;41687;-33.234;-60.334;2023-06-22T02:20:04;8.60;99.90
55771;DHT22;41687;-33.234;-60.334;2023-06-22T02:22:36;8.70;99.90
55771;DHT22;41687;-33.234;-60.334;2023-06-22T02:25:03;8.60;99.90
55771;DHT22;41687;-33.234;-60.334;2023-06-22T02:27:31;8.60;99.90
55771;DHT22;41687;-33.234;-60.334;2023-06-22T02:29:58;8.60;99.90
55771;DHT22;41687;-33.234;-60.334;2023-06-22T02:32:26;8.60;99.90
55771;DHT22;41687;-33.234;-60.334;2023-06-22T02:34:53;8.60;99.90
55771;DHT22;41687;-33.234;-60.334;2023-06-22T02:37:24;8.70;99.90
55771;DHT22;41687;-33.234;-60.334;2023-06-22T02:39:52;8.60;99.90
55771;DHT22;41687;-33.234;-60.334;2023-06-22T02:42:20;8.60;99.90
55771;DHT22;41687;-33.234;-60.334;2023-06-22T02:44:49;8.70;99.90
55771;DHT22;41687;-33.234;-60.334;2023-06-22T02:47:16;8.70;99.90
55771;DHT22;41687;-33.234;-60.334;2023-06-22T02:49:44;8.70;99.90
55771;DHT22;41687;-33.234;-60.334;2023-06-22T02:52:12;8.70;99.90
55771;DHT22;41687;-33.234;-60.334;2023-06-22T02:54:41;8.70;99.90
55771;DHT22;41687;-33.234;-60.334;2023-06-22T02:57:09;8.70;99.90
55771;DHT22;41687;-33.234;-60.334;2023-06-22T02:59:42;8.70;99.90
55771;DHT22;41687;-33.234;-60.334;2023-06-22T03:02:11;8.70;99.90
55771;DHT22;41687;-33.234;-60.334;2023-06-22T03:04:40;8.70;99.90
55771;DHT22;41687;-33.234;-60.334;2023-06-22T03:07:07;8.60;99.90
55771;DHT22;41687;-33.234;-60.334;2023-06-22T03:09:35;8.60;99.90
55771;DHT22;41687;-33.234;-60.334;2023-06-22T03:12:02;8.60;99.90
55771;DHT22;41687;-33.234;-60.334;2023-06-22T03:14:39;8.60;99.90
55771;DHT22;41687;-33.234;-60.334;2023-06-22T03:17:07;8.60;99.90
55771;DHT22;41687;-33.234;-60.334;2023-06-22T03:19:36;8.60;99.90
55771;DHT22;41687;-33.234;-60.334;2023-06-22T03:22:04;8.70;99.90
55771;DHT22;41687;-33.234;-60.334;2023-06-22T03:24:33;8.70;99.90
55771;DHT22;41687;-33.234;-60.334;2023-06-22T03:27:01;8.80;99.90
55771;DHT22;41687;-33.234;-60.334;2023-06-22T03:29:34;8.70;99.90
55771;DHT22;41687;-33.234;-60.334;2023-06-22T03:32:01;8.70;99.90
55771;DHT22;41687;-33.234;-60.334;2023-06-22T03:34:28;8.70;99.90
55771;DHT22;41687;-33.234;-60.334;2023-06-22T03:37:00;8.60;99.90
55771;DHT22;41687;-33.234;-60.334;2023-06-22T03:39:28;8.50;99.90
55771;DHT22;41687;-33.234;-60.334;2023-06-22T03:41:55;8.40;99.90
55771;DHT22;41687;-33.234;-60.334;2023-06-22T03:44:24;8.40;99.90
55771;DHT22;41687;-33.234;-60.334;2023-06-22T03:46:52;8.30;99.90
55771;DHT22;41687;-33.234;-60.334;2023-06-22T03:49:19;8.20;99.90
55771;DHT22;41687;-33.234;-60.334;2023-06-22T03:51:47;8.20;99.90
55771;DHT22;41687;-33.234;-60.334;2023-06-22T03:54:14;8.10;99.90
55771;DHT22;41687;-33.234;-60.334;2023-06-22T03:56:42;8.10;99.90
55771;DHT22;41687;-33.234;-60.334;2023-06-22T03:59:09;8.00;99.90
55771;DHT22;41687;-33.234;-60.334;2023-06-22T04:01:37;8.00;99.90
55771;DHT22;41687;-33.234;-60.334;2023-06-22T04:04:05;8.00;99.90
55771;DHT22;41687;-33.234;-60.334;2023-06-22T04:06:32;7.90;99.90
55771;DHT22;41687;-33.234;-60.334;2023-06-22T04:09:00;7.90;99.90
55771;DHT22;41687;-33.234;-60.334;2023-06-22T04:11:28;7.90;99.90
55771;DHT22;41687;-33.234;-60.334;2023-06-22T04:13:55;7.90;99.90
55771;DHT22;41687;-33.234;-60.334;2023-06-22T04:16:23;7.90;99.90
55771;DHT22;41687;-33.234;-60.334;2023-06-22T04:18:50;7.90;99.90
55771;DHT22;41687;-33.234;-60.334;2023-06-22T04:21:18;7.90;99.90
55771;DHT22;41687;-33.234;-60.334;2023-06-22T04:23:48;7.80;99.90
55771;DHT22;41687;-33.234;-60.334;2023-06-22T04:26:16;7.80;99.90
55771;DHT22;41687;-33.234;-60.334;2023-06-22T04:28:44;7.70;99.90
55771;DHT22;41687;-33.234;-60.334;2023-06-22T04:31:18;7.70;99.90
55771;DHT22;41687;-33.234;-60.334;2023-06-22T04:33:45;7.70;99.90
55771;DHT22;41687;-33.234;-60.334;2023-06-22T04:36:13;7.70;99.90
55771;DHT22;41687;-33.234;-60.334;2023-06-22T04:38:41;7.60;99.90
55771;DHT22;41687;-33.234;-60.334;2023-06-22T04:41:09;7.60;99.90
55771;DHT22;41687;-33.234;-60.334;2023-06-22T04:43:41;7.70;99.90
55771;DHT22;41687;-33.234;-60.334;2023-06-22T04:46:08;7.60;99.90
55771;DHT22;41687;-33.234;-60.334;2023-06-22T04:48:36;7.60;99.90
55771;DHT22;41687;-33.234;-60.334;2023-06-22T04:51:03;7.60;99.90
55771;DHT22;41687;-33.234;-60.334;2023-06-22T04:53:32;7.50;99.90
55771;DHT22;41687;-33.234;-60.334;2023-06-22T04:56:00;7.50;99.90
55771;DHT22;41687;-33.234;-60.334;2023-06-22T04:58:31;7.50;99.90
55771;DHT22;41687;-33.234;-60.334;2023-06-22T05:00:59;7.50;99.90
55771;DHT22;41687;-33.234;-60.334;2023-06-22T05:03:27;7.50;99.90
55771;DHT22;41687;-33.234;-60.334;2023-06-22T05:05:54;7.50;99.90
55771;DHT22;41687;-33.234;-60.334;2023-06-22T05:08:22;7.50;99.90
55771;DHT22;41687;-33.234;-60.334;2023-06-22T05:10:53;7.50;99.90
55771;DHT22;41687;-33.234;-60.334;2023-06-22T05:13:21;7.50;99.90
55771;DHT22;41687;-33.234;-60.334;2023-06-22T05:15:48;7.50;99.90
55771;DHT22;41687;-33.234;-60.334;2023-06-22T05:18:15;7.50;99.90
55771;DHT22;41687;-33.234;-60.334;2023-06-22T05:20:43;7.50;99.90
55771;DHT22;41687;-33.234;-60.334;2023-06-22T05:23:10;7.50;99.90
55771;DHT22;41687;-33.234;-60.334;2023-06-22T05:25:38;7.50;99.90
55771;DHT22;41687;-33.234;-60.334;2023-06-22T05:28:05;7.50;99.90
55771;DHT22;41687;-33.234;-60.334;2023-06-22T05:30:38;7.50;99.90
55771;DHT22;41687;-33.234;-60.334;2023-06-22T05:33:05;7.50;99.90
55771;DHT22;41687;-33.234;-60.334;2023-06-22T05:35:33;7.50;99.90
55771;DHT22;41687;-33.234;-60.334;2023-06-22T05:38:00;7.50;99.90
55771;DHT22;41687;-33.234;-60.334;2023-06-22T05:40:28;7.50;99.90
55771;DHT22;41687;-33.234;-60.334;2023-06-22T05:42:55;7.50;99.90
55771;DHT22;41687;-33.234;-60.334;2023-06-22T05:45:23;7.50;99.90
55771;DHT22;41687;-33.234;-60.334;2023-06-22T05:47:50;7.60;99.90
55771;DHT22;41687;-33.234;-60.334;2023-06-22T05:50:17;7.60;99.90
55771;DHT22;41687;-33.234;-60.334;2023-06-22T05:52:45;7.60;99.90
55771;DHT22;41687;-33.234;-60.334;2023-06-22T05:55:13;7.70;99.90
55771;DHT22;41687;-33.234;-60.334;2023-06-22T05:57:42;7.70;99.90
55771;DHT22;41687;-33.234;-60.334;2023-06-22T06:00:10;7.70;99.90
55771;DHT22;41687;-33.234;-60.334;2023-06-22T06:02:38;7.70;99.90
55771;DHT22;41687;-33.234;-60.334;2023-06-22T06:05:11;7.70;99.90
55771;DHT22;41687;-33.234;-60.334;2023-06-22T06:07:42;7.60;99.90
55771;DHT22;41687;-33.234;-60.334;2023-06-22T06:10:10;7.50;99.90
55771;DHT22;41687;-33.234;-60.334;2023-06-22T06:12:38;7.40;99.90
55771;DHT22;41687;-33.234;-60.334;2023-06-22T06:15:06;7.40;99.90
55771;DHT22;41687;-33.234;-60.334;2023-06-22T06:17:33;7.30;99.90
55771;DHT22;41687;-33.234;-60.334;2023-06-22T06:20:01;7.30;99.90
55771;DHT22;41687;-33.234;-60.334;2023-06-22T06:22:32;7.20;99.90
55771;DHT22;41687;-33.234;-60.334;2023-06-22T06:24:59;7.10;99.90
55771;DHT22;41687;-33.234;-60.334;2023-06-22T06:27:26;7.20;99.90
55771;DHT22;41687;-33.234;-60.334;2023-06-22T06:29:56;7.20;99.90
55771;DHT22;41687;-33.234;-60.334;2023-06-22T06:32:23;7.10;99.90
55771;DHT22;41687;-33.234;-60.334;2023-06-22T06:34:51;7.00;99.90
55771;DHT22;41687;-33.234;-60.334;2023-06-22T06:37:18;7.00;99.90
55771;DHT22;41687;-33.234;-60.334;2023-06-22T06:39:46;7.00;99.90
55771;DHT22;41687;-33.234;-60.334;2023-06-22T06:42:14;6.90;99.90
55771;DHT22;41687;-33.234;-60.334;2023-06-22T06:44:41;6.90;99.90
55771;DHT22;41687;-33.234;-60.334;2023-06-22T06:47:09;6.90;99.90
55771;DHT22;41687;-33.234;-60.334;2023-06-22T06:49:36;6.90;99.90
55771;DHT22;41687;-33.234;-60.334;2023-06-22T06:52:04;6.90;99.90
55771;DHT22;41687;-33.234;-60.334;2023-06-22T06:54:32;6.90;99.90
55771;DHT22;41687;-33.234;-60.334;2023-06-22T06:56:59;6.90;99.90
55771;DHT22;41687;-33.234;-60.334;2023-06-22T06:59:27;6.90;99.90
55771;DHT22;41687;-33.234;-60.334;2023-06-22T07:01:57;6.90;99.90
55771;DHT22;41687;-33.234;-60.334;2023-06-22T07:04:24;6.90;99.90
55771;DHT22;41687;-33.234;-60.334;2023-06-22T07:06:52;6.90;99.90
55771;DHT22;41687;-33.234;-60.334;2023-06-22T07:09:19;6.90;99.90
55771;DHT22;41687;-33.234;-60.334;2023-06-22T07:11:47;6.90;99.90
55771;DHT22;41687;-33.234;-60.334;2023-06-22T07:14:14;6.90;99.90
55771;DHT22;41687;-33.234;-60.334;2023-06-22T07:16:42;6.80;99.90
55771;DHT22;41687;-33.234;-60.334;2023-06-22T07:19:12;6.80;99.90
55771;DHT22;41687;-33.234;-60.334;2023-06-22T07:21:40;6.80;99.90
55771;DHT22;41687;-33.234;-60.334;2023-06-22T07:24:08;6.80;99.90
55771;DHT22;41687;-33.234;-60.334;2023-06-22T07:26:35;6.80;99.90
55771;DHT22;41687;-33.234;-60.334;2023-06-22T07:29:03;6.80;99.90
55771;DHT22;41687;-33.234;-60.334;2023-06-22T07:31:31;6.80;99.90
55771;DHT22;41687;-33.234;-60.334;2023-06-22T07:33:58;6.90;99.90
55771;DHT22;41687;-33.234;-60.334;2023-06-22T07:36:26;7.00;99.90
55771;DHT22;41687;-33.234;-60.334;2023-06-22T07:38:53;7.10;99.90
55771;DHT22;41687;-33.234;-60.334;2023-06-22T07:41:21;7.10;99.90
55771;DHT22;41687;-33.234;-60.334;2023-06-22T07:43:49;7.10;99.90
55771;DHT22;41687;-33.234;-60.334;2023-06-22T07:46:17;7.10;99.90
55771;DHT22;41687;-33.234;-60.334;2023-06-22T07:48:45;7.20;99.90
55771;DHT22;41687;-33.234;-60.334;2023-06-22T07:51:13;7.20;99.90
55771;DHT22;41687;-33.234;-60.334;2023-06-22T07:53:44;7.30;99.90
55771;DHT22;41687;-33.234;-60.334;2023-06-22T07:56:12;7.30;99.90
55771;DHT22;41687;-33.234;-60.334;2023-06-22T07:58:40;7.40;99.90
55771;DHT22;41687;-33.234;-60.334;2023-06-22T08:01:08;7.40;99.90
55771;DHT22;41687;-33.234;-60.334;2023-06-22T08:03:35;7.50;99.90
55771;DHT22;41687;-33.234;-60.334;2023-06-22T08:06:03;7.60;99.90
55771;DHT22;41687;-33.234;-60.334;2023-06-22T08:08:31;7.70;99.90
55771;DHT22;41687;-33.234;-60.334;2023-06-22T08:10:58;7.70;99.90
55771;DHT22;41687;-33.234;-60.334;2023-06-22T08:13:26;7.70;99.90
55771;DHT22;41687;-33.234;-60.334;2023-06-22T08:15:54;7.80;99.90
55771;DHT22;41687;-33.234;-60.334;2023-06-22T08:18:21;7.80;99.90
55771;DHT22;41687;-33.234;-60.334;2023-06-22T08:20:49;7.80;99.90
55771;DHT22;41687;-33.234;-60.334;2023-06-22T08:23:16;7.90;99.90
55771;DHT22;41687;-33.234;-60.334;2023-06-22T08:25:44;7.80;99.90
55771;DHT22;41687;-33.234;-60.334;2023-06-22T08:28:12;7.80;99.90
55771;DHT22;41687;-33.234;-60.334;2023-06-22T08:30:40;7.90;99.90
55771;DHT22;41687;-33.234;-60.334;2023-06-22T08:33:07;7.90;99.90
55771;DHT22;41687;-33.234;-60.334;2023-06-22T08:35:35;7.90;99.90
55771;DHT22;41687;-33.234;-60.334;2023-06-22T08:38:02;7.90;99.90
55771;DHT22;41687;-33.234;-60.334;2023-06-22T08:40:30;7.80;99.90
55771;DHT22;41687;-33.234;-60.334;2023-06-22T08:42:57;7.80;99.90
55771;DHT22;41687;-33.234;-60.334;2023-06-22T08:45:25;7.90;99.90
55771;DHT22;41687;-33.234;-60.334;2023-06-22T08:47:52;7.90;99.90
55771;DHT22;41687;-33.234;-60.334;2023-06-22T08:50:20;7.90;99.90
55771;DHT22;41687;-33.234;-60.334;2023-06-22T08:52:47;7.90;99.90
55771;DHT22;41687;-33.234;-60.334;2023-06-22T08:55:16;7.90;99.90
55771;DHT22;41687;-33.234;-60.334;2023-06-22T08:57:44;8.00;99.90
55771;DHT22;41687;-33.234;-60.334;2023-06-22T09:00:12;7.90;99.90
55771;DHT22;41687;-33.234;-60.334;2023-06-22T09:02:48;7.90;99.90
55771;DHT22;41687;-33.234;-60.334;2023-06-22T09:05:15;7.90;99.90
55771;DHT22;41687;-33.234;-60.334;2023-06-22T09:07:43;7.90;99.90
55771;DHT22;41687;-33.234;-60.334;2023-06-22T09:10:11;7.90;99.90
55771;DHT22;41687;-33.234;-60.334;2023-06-22T09:12:40;7.90;99.90
55771;DHT22;41687;-33.234;-60.334;2023-06-22T09:15:08;7.90;99.90
55771;DHT22;41687;-33.234;-60.334;2023-06-22T09:17:35;7.90;99.90
55771;DHT22;41687;-33.234;-60.334;2023-06-22T09:20:04;7.90;99.90
55771;DHT22;41687;-33.234;-60.334;2023-06-22T09:22:32;7.90;99.90
55771;DHT22;41687;-33.234;-60.334;2023-06-22T09:25:00;7.90;99.90
55771;DHT22;41687;-33.234;-60.334;2023-06-22T09:27:29;7.90;99.90
55771;DHT22;41687;-33.234;-60.334;2023-06-22T09:29:56;7.90;99.90
55771;DHT22;41687;-33.234;-60.334;2023-06-22T09:32:28;7.90;99.90
55771;DHT22;41687;-33.234;-60.334;2023-06-22T09:34:56;7.90;99.90
55771;DHT22;41687;-33.234;-60.334;2023-06-22T09:37:23;7.90;99.90
55771;DHT22;41687;-33.234;-60.334;2023-06-22T09:39:50;8.00;99.90
55771;DHT22;41687;-33.234;-60.334;2023-06-22T09:42:17;8.00;99.90
55771;DHT22;41687;-33.234;-60.334;2023-06-22T09:44:45;7.90;99.90
55771;DHT22;41687;-33.234;-60.334;2023-06-22T09:47:13;7.90;99.90
55771;DHT22;41687;-33.234;-60.334;2023-06-22T09:49:40;8.00;99.90
55771;DHT22;41687;-33.234;-60.334;2023-06-22T09:52:08;7.90;99.90
55771;DHT22;41687;-33.234;-60.334;2023-06-22T09:54:36;7.90;99.90
55771;DHT22;41687;-33.234;-60.334;2023-06-22T09:57:03;8.00;99.90
55771;DHT22;41687;-33.234;-60.334;2023-06-22T09:59:31;8.00;99.90
55771;DHT22;41687;-33.234;-60.334;2023-06-22T10:01:58;7.90;99.90
55771;DHT22;41687;-33.234;-60.334;2023-06-22T10:04:26;7.90;99.90
55771;DHT22;41687;-33.234;-60.334;2023-06-22T10:06:53;7.90;99.90
55771;DHT22;41687;-33.234;-60.334;2023-06-22T10:09:21;7.90;99.90
55771;DHT22;41687;-33.234;-60.334;2023-06-22T10:11:48;7.90;99.90
55771;DHT22;41687;-33.234;-60.334;2023-06-22T10:14:16;7.80;99.90
55771;DHT22;41687;-33.234;-60.334;2023-06-22T10:16:43;7.80;99.90
55771;DHT22;41687;-33.234;-60.334;2023-06-22T10:19:11;7.80;99.90
55771;DHT22;41687;-33.234;-60.334;2023-06-22T10:21:38;7.70;99.90
55771;DHT22;41687;-33.234;-60.334;2023-06-22T10:24:06;7.70;99.90
55771;DHT22;41687;-33.234;-60.334;2023-06-22T10:26:36;7.70;99.90
55771;DHT22;41687;-33.234;-60.334;2023-06-22T10:29:03;7.60;99.90
55771;DHT22;41687;-33.234;-60.334;2023-06-22T10:31:31;7.60;99.90
55771;DHT22;41687;-33.234;-60.334;2023-06-22T10:33:59;7.60;99.90
55771;DHT22;41687;-33.234;-60.334;2023-06-22T10:36:26;7.60;99.90
55771;DHT22;41687;-33.234;-60.334;2023-06-22T10:38:54;7.60;99.90
55771;DHT22;41687;-33.234;-60.334;2023-06-22T10:41:22;7.60;99.90
55771;DHT22;41687;-33.234;-60.334;2023-06-22T10:43:49;7.60;99.90
55771;DHT22;41687;-33.234;-60.334;2023-06-22T10:46:17;7.60;99.90
55771;DHT22;41687;-33.234;-60.334;2023-06-22T10:48:45;7.60;99.90
55771;DHT22;41687;-33.234;-60.334;2023-06-22T10:51:12;7.50;99.90
55771;DHT22;41687;-33.234;-60.334;2023-06-22T10:53:40;7.60;99.90
55771;DHT22;41687;-33.234;-60.334;2023-06-22T10:56:08;7.50;99.90
55771;DHT22;41687;-33.234;-60.334;2023-06-22T10:58:36;7.50;99.90
55771;DHT22;41687;-33.234;-60.334;2023-06-22T11:01:04;7.60;99.90
55771;DHT22;41687;-33.234;-60.334;2023-06-22T11:03:31;7.50;99.90
55771;DHT22;41687;-33.234;-60.334;2023-06-22T11:05:58;7.50;99.90
55771;DHT22;41687;-33.234;-60.334;2023-06-22T11:08:26;7.50;99.90
55771;DHT22;41687;-33.234;-60.334;2023-06-22T11:10:54;7.50;99.90
55771;DHT22;41687;-33.234;-60.334;2023-06-22T11:13:21;7.50;99.90
55771;DHT22;41687;-33.234;-60.334;2023-06-22T11:15:48;7.50;99.90
55771;DHT22;41687;-33.234;-60.334;2023-06-22T11:18:16;7.50;99.90
55771;DHT22;41687;-33.234;-60.334;2023-06-22T11:20:44;7.50;99.90
55771;DHT22;41687;-33.234;-60.334;2023-06-22T11:23:11;7.50;99.90
55771;DHT22;41687;-33.234;-60.334;2023-06-22T11:25:39;7.50;99.90
55771;DHT22;41687;-33.234;-60.334;2023-06-22T11:28:09;7.60;99.90
55771;DHT22;41687;-33.234;-60.334;2023-06-22T11:30:36;7.60;99.90
55771;DHT22;41687;-33.234;-60.334;2023-06-22T11:33:03;7.60;99.90
55771;DHT22;41687;-33.234;-60.334;2023-06-22T11:35:31;7.70;99.90
55771;DHT22;41687;-33.234;-60.334;2023-06-22T11:37:59;7.70;99.90
55771;DHT22;41687;-33.234;-60.334;2023-06-22T11:40:26;7.80;99.90
55771;DHT22;41687;-33.234;-60.334;2023-06-22T11:42:54;7.80;99.90
55771;DHT22;41687;-33.234;-60.334;2023-06-22T11:45:21;7.90;99.90
55771;DHT22;41687;-33.234;-60.334;2023-06-22T11:47:49;7.90;99.90
55771;DHT22;41687;-33.234;-60.334;2023-06-22T11:50:16;8.00;99.90
55771;DHT22;41687;-33.234;-60.334;2023-06-22T11:52:44;8.10;99.90
55771;DHT22;41687;-33.234;-60.334;2023-06-22T11:55:11;8.10;99.90
55771;DHT22;41687;-33.234;-60.334;2023-06-22T11:57:55;8.20;99.90
55771;DHT22;41687;-33.234;-60.334;2023-06-22T12:00:23;8.20;99.90
55771;DHT22;41687;-33.234;-60.334;2023-06-22T12:02:51;8.20;99.90
55771;DHT22;41687;-33.234;-60.334;2023-06-22T12:05:20;8.10;99.90
55771;DHT22;41687;-33.234;-60.334;2023-06-22T12:07:54;8.10;99.90
55771;DHT22;41687;-33.234;-60.334;2023-06-22T12:10:25;8.10;99.90
55771;DHT22;41687;-33.234;-60.334;2023-06-22T12:12:53;8.10;99.90
55771;DHT22;41687;-33.234;-60.334;2023-06-22T12:15:20;8.20;99.90
55771;DHT22;41687;-33.234;-60.334;2023-06-22T12:17:48;8.20;99.90
55771;DHT22;41687;-33.234;-60.334;2023-06-22T12:20:15;8.20;99.90
55771;DHT22;41687;-33.234;-60.334;2023-06-22T12:22:43;8.20;99.90
55771;DHT22;41687;-33.234;-60.334;2023-06-22T12:25:12;8.20;99.90
55771;DHT22;41687;-33.234;-60.334;2023-06-22T12:27:39;8.30;99.90
55771;DHT22;41687;-33.234;-60.334;2023-06-22T12:30:07;8.30;99.90
55771;DHT22;41687;-33.234;-60.334;2023-06-22T12:32:35;8.30;99.90
55771;DHT22;41687;-33.234;-60.334;2023-06-22T12:35:02;8.30;99.90
55771;DHT22;41687;-33.234;-60.334;2023-06-22T12:37:30;8.30;99.90
55771;DHT22;41687;-33.234;-60.334;2023-06-22T12:39:58;8.30;99.90
55771;DHT22;41687;-33.234;-60.334;2023-06-22T12:42:26;8.30;99.90
55771;DHT22;41687;-33.234;-60.334;2023-06-22T12:44:54;8.40;99.90
55771;DHT22;41687;-33.234;-60.334;2023-06-22T12:47:22;8.40;99.90
55771;DHT22;41687;-33.234;-60.334;2023-06-22T12:49:50;8.50;99.90
55771;DHT22;41687;-33.234;-60.334;2023-06-22T12:52:17;8.50;99.90
55771;DHT22;41687;-33.234;-60.334;2023-06-22T12:54:44;8.60;99.90
55771;DHT22;41687;-33.234;-60.334;2023-06-22T12:57:12;8.70;99.90
55771;DHT22;41687;-33.234;-60.334;2023-06-22T12:59:40;8.80;99.90
55771;DHT22;41687;-33.234;-60.334;2023-06-22T13:02:08;8.80;99.90
55771;DHT22;41687;-33.234;-60.334;2023-06-22T13:04:35;8.80;99.90
55771;DHT22;41687;-33.234;-60.334;2023-06-22T13:07:03;8.90;99.90
55771;DHT22;41687;-33.234;-60.334;2023-06-22T13:09:31;8.90;99.90
55771;DHT22;41687;-33.234;-60.334;2023-06-22T13:12:00;9.00;99.90
55771;DHT22;41687;-33.234;-60.334;2023-06-22T13:14:27;9.10;99.90
55771;DHT22;41687;-33.234;-60.334;2023-06-22T13:16:55;9.20;99.90
55771;DHT22;41687;-33.234;-60.334;2023-06-22T13:19:22;9.20;99.90
55771;DHT22;41687;-33.234;-60.334;2023-06-22T13:21:50;9.30;99.90
55771;DHT22;41687;-33.234;-60.334;2023-06-22T13:24:17;9.30;99.90
55771;DHT22;41687;-33.234;-60.334;2023-06-22T13:26:45;9.40;99.90
55771;DHT22;41687;-33.234;-60.334;2023-06-22T13:29:12;9.50;99.90
55771;DHT22;41687;-33.234;-60.334;2023-06-22T13:31:40;9.40;99.90
55771;DHT22;41687;-33.234;-60.334;2023-06-22T13:34:07;9.50;99.90
55771;DHT22;41687;-33.234;-60.334;2023-06-22T13:36:35;9.50;99.90
55771;DHT22;41687;-33.234;-60.334;2023-06-22T13:39:02;9.60;99.90
55771;DHT22;41687;-33.234;-60.334;2023-06-22T13:41:30;9.80;99.90
55771;DHT22;41687;-33.234;-60.334;2023-06-22T13:43:58;9.90;99.90
55771;DHT22;41687;-33.234;-60.334;2023-06-22T13:46:27;10.10;99.90
55771;DHT22;41687;-33.234;-60.334;2023-06-22T13:48:55;10.20;99.90
55771;DHT22;41687;-33.234;-60.334;2023-06-22T13:51:22;10.50;99.90
55771;DHT22;41687;-33.234;-60.334;2023-06-22T13:53:50;10.70;99.90
55771;DHT22;41687;-33.234;-60.334;2023-06-22T13:56:18;10.90;99.90
55771;DHT22;41687;-33.234;-60.334;2023-06-22T13:58:45;11.00;99.90
55771;DHT22;41687;-33.234;-60.334;2023-06-22T14:01:13;11.10;99.90
55771;DHT22;41687;-33.234;-60.334;2023-06-22T14:03:40;11.40;99.90
55771;DHT22;41687;-33.234;-60.334;2023-06-22T14:06:08;11.50;99.90
55771;DHT22;41687;-33.234;-60.334;2023-06-22T14:08:37;11.60;99.90
55771;DHT22;41687;-33.234;-60.334;2023-06-22T14:11:05;11.80;99.90
55771;DHT22;41687;-33.234;-60.334;2023-06-22T14:13:32;11.70;99.90
55771;DHT22;41687;-33.234;-60.334;2023-06-22T14:16:00;11.80;99.90
55771;DHT22;41687;-33.234;-60.334;2023-06-22T14:18:27;11.80;99.90
55771;DHT22;41687;-33.234;-60.334;2023-06-22T14:20:55;11.60;99.90
55771;DHT22;41687;-33.234;-60.334;2023-06-22T14:23:22;11.50;99.90
55771;DHT22;41687;-33.234;-60.334;2023-06-22T14:25:50;11.50;99.90
55771;DHT22;41687;-33.234;-60.334;2023-06-22T14:28:17;11.30;99.90
55771;DHT22;41687;-33.234;-60.334;2023-06-22T14:30:45;11.50;99.90
55771;DHT22;41687;-33.234;-60.334;2023-06-22T14:33:13;11.40;99.90
55771;DHT22;41687;-33.234;-60.334;2023-06-22T14:35:40;11.20;99.90
55771;DHT22;41687;-33.234;-60.334;2023-06-22T14:38:08;11.20;99.90
55771;DHT22;41687;-33.234;-60.334;2023-06-22T14:40:35;10.90;99.90
55771;DHT22;41687;-33.234;-60.334;2023-06-22T14:43:03;10.80;99.90
55771;DHT22;41687;-33.234;-60.334;2023-06-22T14:45:31;10.90;99.90
55771;DHT22;41687;-33.234;-60.334;2023-06-22T14:47:58;11.00;99.90
55771;DHT22;41687;-33.234;-60.334;2023-06-22T14:50:26;11.10;99.90
55771;DHT22;41687;-33.234;-60.334;2023-06-22T14:52:54;11.20;99.90
55771;DHT22;41687;-33.234;-60.334;2023-06-22T14:55:22;11.20;99.90
55771;DHT22;41687;-33.234;-60.334;2023-06-22T14:57:49;11.30;99.90
55771;DHT22;41687;-33.234;-60.334;2023-06-22T15:00:18;11.10;99.90
55771;DHT22;41687;-33.234;-60.334;2023-06-22T15:02:45;11.10;99.90
55771;DHT22;41687;-33.234;-60.334;2023-06-22T15:05:13;11.20;99.90
55771;DHT22;41687;-33.234;-60.334;2023-06-22T15:07:40;11.40;99.90
55771;DHT22;41687;-33.234;-60.334;2023-06-22T15:10:09;11.40;99.90
55771;DHT22;41687;-33.234;-60.334;2023-06-22T15:12:36;11.30;99.90
55771;DHT22;41687;-33.234;-60.334;2023-06-22T15:15:04;11.40;99.90
55771;DHT22;41687;-33.234;-60.334;2023-06-22T15:17:32;11.40;99.90